Urbandale, Iowa
Current Conditions -  °F | °C
As of 5:54 AM on Sunday 21 Dec 2014 (Local Time) from KDSM Reporting Station
Overcast Overcast  
Wind Chill: 30°   Ceiling: 1000
Heat Index: 38°   Visibility: 7mi
Dew Point: 34°   Wind: 12mph
Humidity: 86%   Direction: 180°S
Pressure: 30.01"   Gusts: NA
Location:  41.63°N, 93.71°W
Report Text: KDSM 211154Z 18010KT 7SM BKN010 OVC017 03/01 A3001 RMK AO2 CIG 009V013 SLP168 T00330011 10039 20028 56013
Loading
Personal Weather Stations






























Interactive Weather Map New forecast layout! Learn more

10-Day Weather Forecast

Advertisements
Track Severe Weather on mobile